createdAt,value
2022-07-28T00:02:22.398Z,9.52
2022-07-28T00:04:51.707Z,10.63
2022-07-28T00:07:21.475Z,10.93
2022-07-28T00:09:55.617Z,10.37
2022-07-28T00:12:32.040Z,10.68
2022-07-28T00:15:01.669Z,11.30
2022-07-28T00:17:38.202Z,11.82
2022-07-28T00:20:12.014Z,11.93
2022-07-28T00:22:48.430Z,12.17
2022-07-28T00:25:17.802Z,10.55
2022-07-28T00:27:48.402Z,13.15
2022-07-28T00:30:17.745Z,11.02
2022-07-28T00:32:49.652Z,11.68
2022-07-28T00:35:30.378Z,11.80
2022-07-28T00:38:02.840Z,12.80
2022-07-28T00:40:50.291Z,14.80
2022-07-28T00:43:19.882Z,13.00
2022-07-28T00:45:49.386Z,13.02
2022-07-28T00:48:21.353Z,10.17
2022-07-28T00:50:51.453Z,11.98
2022-07-28T00:53:21.523Z,10.48
2022-07-28T00:56:03.345Z,10.05
2022-07-28T00:58:37.072Z,10.75
2022-07-28T01:01:10.831Z,11.57
2022-07-28T01:03:44.964Z,10.55
2022-07-28T01:06:54.396Z,13.10
2022-07-28T01:09:53.322Z,11.82
2022-07-28T01:12:47.286Z,10.63
2022-07-28T01:15:25.178Z,11.27
2022-07-28T01:18:18.751Z,11.98
2022-07-28T01:21:04.524Z,10.60
2022-07-28T01:24:06.793Z,11.75
2022-07-28T01:26:51.029Z,13.27
2022-07-28T01:29:51.753Z,12.17
2022-07-28T01:32:44.841Z,12.18
2022-07-28T01:35:27.612Z,11.10
2022-07-28T01:38:01.317Z,11.88
2022-07-28T01:40:35.814Z,14.77
2022-07-28T01:43:08.726Z,12.37
2022-07-28T01:45:42.921Z,12.82
2022-07-28T01:48:14.092Z,11.48
2022-07-28T01:50:44.477Z,13.23
2022-07-28T01:53:16.274Z,12.90
2022-07-28T01:55:47.059Z,11.20
2022-07-28T01:58:43.187Z,12.68
2022-07-28T02:01:36.762Z,12.57
2022-07-28T02:04:09.786Z,12.07
2022-07-28T02:06:39.712Z,12.32
2022-07-28T02:09:10.174Z,12.73
2022-07-28T02:11:43.238Z,12.85
2022-07-28T02:14:27.610Z,13.88
2022-07-28T02:17:00.877Z,12.10
2022-07-28T02:19:32.174Z,15.70
2022-07-28T02:22:05.103Z,12.43
2022-07-28T02:24:35.068Z,13.02
2022-07-28T02:27:09.653Z,14.20
2022-07-28T02:29:51.631Z,13.40
2022-07-28T02:32:47.247Z,12.82
2022-07-28T02:35:29.065Z,11.50
2022-07-28T02:38:07.146Z,13.85
2022-07-28T02:40:38.672Z,13.57
2022-07-28T02:43:13.657Z,12.57
2022-07-28T02:45:45.461Z,12.55
2022-07-28T02:48:17.648Z,13.63
2022-07-28T02:50:48.120Z,11.52
2022-07-28T02:53:18.043Z,12.13
2022-07-28T02:55:49.532Z,10.90
2022-07-28T02:58:23.872Z,12.30
2022-07-28T03:00:55.410Z,14.37
2022-07-28T03:03:25.686Z,13.38
2022-07-28T03:05:55.169Z,12.98
2022-07-28T03:08:24.781Z,11.25
2022-07-28T03:11:09.301Z,13.45
2022-07-28T03:13:39.256Z,14.67
2022-07-28T03:16:10.098Z,12.10
2022-07-28T03:18:39.405Z,11.60
2022-07-28T03:21:09.595Z,10.88
2022-07-28T03:23:47.776Z,12.18
2022-07-28T03:26:26.034Z,12.80
2022-07-28T03:28:56.944Z,11.85
2022-07-28T03:31:26.686Z,13.38
2022-07-28T03:33:56.227Z,12.80
2022-07-28T03:36:41.619Z,12.13
2022-07-28T03:39:13.285Z,11.30
2022-07-28T03:41:50.830Z,12.38
2022-07-28T03:44:28.867Z,11.65
2022-07-28T03:46:58.628Z,12.00
2022-07-28T03:49:28.010Z,11.35
2022-07-28T03:52:01.589Z,12.47
2022-07-28T03:54:33.160Z,11.05
2022-07-28T03:57:02.942Z,10.60
2022-07-28T03:59:32.521Z,10.75
2022-07-28T04:02:02.430Z,11.60
2022-07-28T04:04:31.886Z,12.87
2022-07-28T04:07:06.655Z,10.25
2022-07-28T04:09:37.322Z,11.27
2022-07-28T04:12:15.637Z,11.50
2022-07-28T04:14:46.622Z,11.55
2022-07-28T04:17:15.976Z,10.03
2022-07-28T04:19:45.286Z,13.00
2022-07-28T04:22:14.889Z,10.95
2022-07-28T04:25:06.299Z,11.13
2022-07-28T04:27:37.910Z,12.70
2022-07-28T04:30:35.554Z,10.63
2022-07-28T04:33:33.070Z,9.90
2022-07-28T04:36:23.668Z,11.68
2022-07-28T04:38:52.861Z,12.05
2022-07-28T04:41:22.264Z,13.75
2022-07-28T04:43:52.671Z,11.17
2022-07-28T04:46:22.052Z,11.60
2022-07-28T04:48:51.530Z,10.52
2022-07-28T04:51:30.434Z,10.30
2022-07-28T04:54:02.620Z,15.27
2022-07-28T04:56:31.939Z,9.97
2022-07-28T04:59:03.935Z,10.77
2022-07-28T05:01:34.183Z,9.80
2022-07-28T05:04:09.352Z,10.48
2022-07-28T05:06:38.717Z,11.80
2022-07-28T05:09:07.967Z,11.93
2022-07-28T05:11:37.996Z,11.07
2022-07-28T05:14:07.427Z,11.50
2022-07-28T05:16:42.858Z,10.60
2022-07-28T05:19:15.885Z,8.98
2022-07-28T05:21:45.275Z,9.13
2022-07-28T05:24:17.517Z,11.40
2022-07-28T05:26:47.087Z,11.43
2022-07-28T05:29:16.759Z,9.50
2022-07-28T05:31:47.146Z,9.63
2022-07-28T05:34:17.074Z,10.13
2022-07-28T05:36:46.824Z,9.65
2022-07-28T05:39:19.601Z,10.25
2022-07-28T05:41:48.970Z,10.93
2022-07-28T05:44:18.310Z,10.23
2022-07-28T05:46:47.757Z,11.53
2022-07-28T05:49:17.096Z,10.88
2022-07-28T05:51:53.659Z,9.00
2022-07-28T05:54:31.155Z,12.23
2022-07-28T05:57:00.437Z,9.43
2022-07-28T05:59:30.470Z,8.97
2022-07-28T06:01:59.707Z,10.90
2022-07-28T06:04:29.700Z,9.40
2022-07-28T06:07:06.881Z,9.85
2022-07-28T06:10:08.828Z,9.95
2022-07-28T06:12:52.280Z,9.87
2022-07-28T06:15:29.553Z,8.02
2022-07-28T06:17:58.911Z,9.40
2022-07-28T06:20:29.071Z,9.85
2022-07-28T06:22:59.455Z,10.20
2022-07-28T06:25:31.115Z,14.23
2022-07-28T06:28:05.649Z,10.88
2022-07-28T06:30:35.466Z,10.18
2022-07-28T06:33:06.924Z,11.52
2022-07-28T06:35:50.882Z,8.68
2022-07-28T06:38:23.875Z,10.80
2022-07-28T06:40:53.394Z,10.70
2022-07-28T06:43:26.483Z,12.50
2022-07-28T06:45:55.864Z,9.60
2022-07-28T06:48:29.007Z,9.93
2022-07-28T06:51:01.561Z,8.97
2022-07-28T06:53:33.616Z,13.50
2022-07-28T06:56:04.285Z,11.77
2022-07-28T06:58:33.852Z,10.88
2022-07-28T07:01:08.679Z,13.88
2022-07-28T07:03:39.048Z,11.87
2022-07-28T07:06:09.800Z,18.20
2022-07-28T07:08:38.995Z,10.70
2022-07-28T07:11:08.765Z,10.65
2022-07-28T07:13:38.368Z,8.82
2022-07-28T07:16:07.889Z,9.00
2022-07-28T07:19:01.270Z,10.48
2022-07-28T07:22:11.450Z,12.60
2022-07-28T07:24:56.711Z,10.30
2022-07-28T07:27:27.455Z,10.57
2022-07-28T07:32:39.602Z,12.27
2022-07-28T07:35:10.179Z,10.57
2022-07-28T07:37:39.789Z,10.50
2022-07-28T07:40:12.783Z,8.75
2022-07-28T07:42:47.268Z,9.73
2022-07-28T07:45:16.788Z,8.90
2022-07-28T07:47:46.298Z,9.90
2022-07-28T07:50:15.569Z,8.48
2022-07-28T07:52:45.861Z,9.20
2022-07-28T07:55:15.211Z,10.57
2022-07-28T07:57:46.314Z,10.27
2022-07-28T08:00:29.717Z,8.27
2022-07-28T08:03:00.521Z,9.23
2022-07-28T08:05:35.115Z,9.45
2022-07-28T08:08:06.694Z,9.60
2022-07-28T08:10:42.616Z,10.07
2022-07-28T08:13:12.033Z,9.40
2022-07-28T08:15:41.690Z,9.13
2022-07-28T08:18:18.810Z,10.27
2022-07-28T08:20:48.127Z,9.87
2022-07-28T08:23:18.693Z,10.13
2022-07-28T08:26:04.189Z,9.77
2022-07-28T08:28:33.942Z,11.20
2022-07-28T08:31:04.484Z,11.00
2022-07-28T08:33:33.902Z,12.07
2022-07-28T08:36:03.591Z,10.25
2022-07-28T08:38:33.763Z,8.05
2022-07-28T08:41:06.103Z,9.13
2022-07-28T08:43:41.596Z,9.10
2022-07-28T08:46:11.234Z,10.57
2022-07-28T08:48:40.918Z,9.85
2022-07-28T08:51:34.378Z,10.18
2022-07-28T08:54:06.491Z,9.05
2022-07-28T08:56:38.103Z,8.73
2022-07-28T08:59:07.534Z,10.93
2022-07-28T09:01:39.146Z,10.73
2022-07-28T09:04:15.715Z,8.75
2022-07-28T09:06:51.489Z,8.95
2022-07-28T09:09:31.617Z,9.25
2022-07-28T09:12:09.043Z,9.13
2022-07-28T09:14:38.524Z,7.80
2022-07-28T09:17:08.126Z,9.40
2022-07-28T09:19:39.396Z,9.93
2022-07-28T09:22:09.528Z,10.70
2022-07-28T09:24:46.081Z,12.67
2022-07-28T09:27:26.172Z,9.15
2022-07-28T09:30:02.611Z,11.70
2022-07-28T09:32:32.608Z,10.85
2022-07-28T09:35:02.056Z,10.55
2022-07-28T09:37:31.287Z,9.07
2022-07-28T09:40:12.579Z,10.23
2022-07-28T09:42:59.210Z,7.95
2022-07-28T09:45:32.639Z,8.32
2022-07-28T09:48:17.392Z,9.27
2022-07-28T09:50:47.040Z,10.60
2022-07-28T09:53:43.178Z,9.20
2022-07-28T09:56:14.421Z,11.05
2022-07-28T09:58:44.189Z,9.40
2022-07-28T10:01:16.809Z,9.85
2022-07-28T10:03:52.919Z,8.90
2022-07-28T10:06:29.674Z,10.35
2022-07-28T10:09:03.690Z,10.27
2022-07-28T10:11:37.702Z,9.15
2022-07-28T10:14:10.440Z,8.88
2022-07-28T10:16:48.282Z,8.87
2022-07-28T10:19:17.732Z,10.25
2022-07-28T10:21:53.394Z,10.60
2022-07-28T10:24:31.857Z,8.20
2022-07-28T10:27:02.330Z,9.25
2022-07-28T10:29:33.046Z,11.57
2022-07-28T10:32:08.311Z,10.43
2022-07-28T10:34:46.568Z,9.52
2022-07-28T10:37:21.107Z,8.35
2022-07-28T10:40:09.422Z,8.15
2022-07-28T10:42:53.370Z,8.60
2022-07-28T10:45:32.623Z,12.75
2022-07-28T10:48:18.833Z,8.35
2022-07-28T10:50:48.253Z,11.55
2022-07-28T10:53:37.190Z,12.15
2022-07-28T10:56:11.807Z,8.93
2022-07-28T10:59:04.951Z,11.43
2022-07-28T11:01:49.776Z,12.68
2022-07-28T11:04:52.987Z,12.65
2022-07-28T11:07:23.555Z,12.75
2022-07-28T11:09:59.926Z,8.50
2022-07-28T11:13:05.815Z,10.13
2022-07-28T11:15:54.830Z,9.90
2022-07-28T11:18:27.561Z,8.73
2022-07-28T11:21:07.822Z,9.95
2022-07-28T11:23:46.319Z,8.47
2022-07-28T11:26:24.919Z,9.77
2022-07-28T11:29:09.879Z,8.32
2022-07-28T11:31:48.390Z,9.18
2022-07-28T11:34:22.622Z,9.65
2022-07-28T11:37:07.734Z,7.47
2022-07-28T11:39:44.107Z,10.80
2022-07-28T11:42:41.169Z,9.95
2022-07-28T11:45:38.806Z,9.25
2022-07-28T11:48:53.908Z,8.13
2022-07-28T11:51:26.659Z,9.23
2022-07-28T11:53:57.163Z,11.00
2022-07-28T11:56:34.066Z,9.38
2022-07-28T11:59:06.126Z,9.55
2022-07-28T12:01:38.587Z,9.30
2022-07-28T12:04:18.324Z,8.70
2022-07-28T12:06:51.662Z,9.52
2022-07-28T12:09:42.231Z,9.18
2022-07-28T12:12:12.426Z,8.77
2022-07-28T12:14:44.707Z,10.55
2022-07-28T12:17:17.852Z,8.97
2022-07-28T12:19:47.604Z,9.60
2022-07-28T12:22:17.197Z,10.05
2022-07-28T12:24:58.631Z,10.18
2022-07-28T12:27:33.382Z,10.70
2022-07-28T12:30:07.156Z,9.47
2022-07-28T12:32:38.599Z,11.00
2022-07-28T12:35:09.192Z,10.48
2022-07-28T12:37:38.621Z,9.40
2022-07-28T12:40:12.782Z,10.98
2022-07-28T12:43:12.847Z,9.60
2022-07-28T12:46:06.139Z,10.75
2022-07-28T12:48:37.944Z,9.73
2022-07-28T12:51:08.982Z,9.60
2022-07-28T12:53:53.521Z,9.63
2022-07-28T12:56:22.923Z,9.00
2022-07-28T12:59:05.049Z,9.15
2022-07-28T13:01:51.906Z,9.95
2022-07-28T13:04:51.828Z,9.07
2022-07-28T13:07:26.929Z,9.00
2022-07-28T13:10:07.184Z,9.00
2022-07-28T13:13:09.396Z,9.55
2022-07-28T13:15:50.689Z,9.15
2022-07-28T13:19:08.706Z,9.07
2022-07-28T13:22:02.799Z,10.13
2022-07-28T13:24:33.762Z,11.67
2022-07-28T13:27:05.124Z,9.25
2022-07-28T13:29:37.916Z,9.93
2022-07-28T13:32:08.282Z,8.93
2022-07-28T13:34:37.676Z,9.23
2022-07-28T13:37:08.280Z,11.20
2022-07-28T13:39:56.061Z,10.05
2022-07-28T13:42:25.611Z,9.25
2022-07-28T13:44:56.415Z,9.45
2022-07-28T13:47:35.315Z,9.18
2022-07-28T13:50:05.601Z,9.27
2022-07-28T13:52:37.320Z,9.45
2022-07-28T13:55:08.240Z,8.73
2022-07-28T13:57:38.258Z,8.73
2022-07-28T14:00:12.914Z,9.98
2022-07-28T14:02:44.070Z,8.17
2022-07-28T14:05:14.199Z,9.38
2022-07-28T14:07:48.436Z,9.38
2022-07-28T14:10:20.593Z,8.65
2022-07-28T14:13:12.530Z,9.45
2022-07-28T14:15:49.816Z,8.97
2022-07-28T14:18:19.225Z,8.95
2022-07-28T14:20:54.367Z,11.50
2022-07-28T14:23:24.610Z,8.98
2022-07-28T14:26:07.265Z,13.75
2022-07-28T14:28:44.477Z,10.30
2022-07-28T14:31:15.013Z,9.60
2022-07-28T14:33:49.512Z,11.80
2022-07-28T14:36:21.834Z,11.95
2022-07-28T14:38:53.652Z,13.70
2022-07-28T14:41:23.729Z,9.83
2022-07-28T14:43:53.352Z,13.07
2022-07-28T14:46:29.847Z,9.60
2022-07-28T14:49:05.662Z,11.20
2022-07-28T14:51:44.836Z,11.38
2022-07-28T14:54:14.626Z,12.97
2022-07-28T14:56:44.477Z,12.55
2022-07-28T14:59:13.933Z,12.38
2022-07-28T15:01:46.071Z,10.95
2022-07-28T15:04:19.329Z,11.30
2022-07-28T15:06:59.936Z,10.33
2022-07-28T15:09:29.680Z,11.32
2022-07-28T15:11:59.180Z,10.02
2022-07-28T15:14:28.580Z,10.18
2022-07-28T15:16:57.896Z,9.90
2022-07-28T15:19:27.361Z,9.20
2022-07-28T15:22:06.118Z,10.02
2022-07-28T15:24:38.309Z,10.82
2022-07-28T15:27:24.948Z,10.23
2022-07-28T15:29:56.131Z,9.30
2022-07-28T15:32:29.236Z,10.00
2022-07-28T15:35:00.129Z,9.98
2022-07-28T15:37:30.010Z,8.68
2022-07-28T15:39:59.500Z,10.32
2022-07-28T15:42:59.941Z,9.25
2022-07-28T15:45:29.634Z,9.97
2022-07-28T15:50:50.053Z,9.93
2022-07-28T15:53:23.059Z,8.13
2022-07-28T15:55:52.571Z,9.25
2022-07-28T15:58:23.118Z,8.60
2022-07-28T16:00:52.972Z,9.70
2022-07-28T16:03:25.411Z,8.93
2022-07-28T16:05:55.890Z,8.68
2022-07-28T16:08:25.215Z,8.57
2022-07-28T16:10:55.409Z,9.30
2022-07-28T16:13:36.035Z,8.63
2022-07-28T16:16:11.906Z,8.73
2022-07-28T16:18:50.263Z,8.93
2022-07-28T16:22:08.377Z,8.73
2022-07-28T16:24:37.774Z,9.17
2022-07-28T16:27:07.160Z,8.73
2022-07-28T16:29:37.987Z,8.60
2022-07-28T16:32:07.799Z,7.85
2022-07-28T16:34:38.824Z,8.43
2022-07-28T16:37:08.228Z,9.23
2022-07-28T16:39:37.567Z,8.68
2022-07-28T16:42:07.500Z,8.32
2022-07-28T16:44:38.891Z,9.07
2022-07-28T16:47:11.851Z,8.23
2022-07-28T16:49:45.501Z,7.90
2022-07-28T16:52:16.117Z,8.48
2022-07-28T16:54:45.501Z,8.02
2022-07-28T16:57:17.376Z,8.10
2022-07-28T16:59:48.441Z,7.90
2022-07-28T17:02:19.307Z,7.27
2022-07-28T17:04:49.401Z,8.40
2022-07-28T17:07:19.802Z,8.07
2022-07-28T17:09:49.825Z,9.65
2022-07-28T17:12:19.347Z,8.70
2022-07-28T17:14:48.646Z,8.40
2022-07-28T17:17:18.140Z,8.52
2022-07-28T17:19:48.993Z,8.35
2022-07-28T17:22:18.342Z,8.13
2022-07-28T17:24:49.525Z,7.97
2022-07-28T17:27:48.736Z,8.23
2022-07-28T17:30:09.722Z,8.20
2022-07-28T17:32:39.091Z,8.13
2022-07-28T17:35:34.671Z,8.57
2022-07-28T17:38:00.964Z,8.18
2022-07-28T17:40:30.265Z,8.37
2022-07-28T17:42:59.806Z,8.13
2022-07-28T17:45:29.244Z,11.45
2022-07-28T17:47:58.600Z,8.38
2022-07-28T17:50:27.913Z,8.38
2022-07-28T17:52:57.188Z,8.53
2022-07-28T17:55:54.728Z,9.13
2022-07-28T17:58:33.397Z,8.35
2022-07-28T18:01:11.767Z,8.98
2022-07-28T18:03:58.726Z,8.50
2022-07-28T18:06:35.859Z,8.97
2022-07-28T18:11:57.165Z,8.63
2022-07-28T18:14:30.384Z,9.88
2022-07-28T18:17:00.379Z,8.68
2022-07-28T18:19:30.633Z,9.17
2022-07-28T18:21:59.964Z,8.35
2022-07-28T18:24:29.277Z,8.60
2022-07-28T18:26:58.613Z,9.43
2022-07-28T18:29:38.100Z,9.32
2022-07-28T18:32:09.848Z,9.33
2022-07-28T18:34:41.722Z,8.80
2022-07-28T18:37:10.918Z,9.23
2022-07-28T18:39:41.118Z,9.20
2022-07-28T18:42:10.682Z,8.30
2022-07-28T18:44:39.863Z,9.17
2022-07-28T18:47:10.904Z,9.95
2022-07-28T18:49:40.099Z,9.75
2022-07-28T18:52:09.637Z,10.07
2022-07-28T18:54:38.902Z,9.55
2022-07-28T18:57:08.810Z,9.60
2022-07-28T18:59:43.328Z,9.18
2022-07-28T19:02:18.805Z,8.88
2022-07-28T19:04:49.010Z,9.15
2022-07-28T19:07:18.491Z,9.52
2022-07-28T19:09:47.940Z,9.17
2022-07-28T19:12:17.350Z,9.80
2022-07-28T19:14:46.762Z,9.10
2022-07-28T19:17:16.024Z,9.93
2022-07-28T19:19:45.392Z,9.25
2022-07-28T19:22:14.799Z,9.93
2022-07-28T19:24:44.215Z,9.30
2022-07-28T19:27:13.727Z,9.70
2022-07-28T19:29:42.933Z,9.65
2022-07-28T19:32:12.312Z,8.80
2022-07-28T19:34:43.027Z,9.80
2022-07-28T19:37:16.830Z,9.82
2022-07-28T19:39:46.617Z,9.45
2022-07-28T19:42:15.877Z,10.43
2022-07-28T19:44:46.744Z,9.82
2022-07-28T19:47:16.214Z,10.30
2022-07-28T19:49:45.631Z,9.95
2022-07-28T19:52:15.152Z,10.27
2022-07-28T19:54:44.587Z,10.75
2022-07-28T19:57:20.871Z,10.43
2022-07-28T19:59:50.150Z,10.77
2022-07-28T20:02:19.580Z,10.50
2022-07-28T20:04:49.094Z,9.65
2022-07-28T20:07:18.419Z,9.63
2022-07-28T20:09:47.925Z,10.90
2022-07-28T20:12:21.139Z,10.57
2022-07-28T20:14:51.130Z,10.73
2022-07-28T20:17:37.474Z,10.35
2022-07-28T20:20:10.039Z,11.20
2022-07-28T20:22:42.463Z,10.05
2022-07-28T20:25:12.738Z,11.33
2022-07-28T20:27:44.027Z,9.63
2022-07-28T20:30:15.204Z,9.77
2022-07-28T20:32:45.542Z,10.30
2022-07-28T20:35:15.219Z,10.10
2022-07-28T20:37:44.762Z,9.60
2022-07-28T20:40:18.236Z,15.55
2022-07-28T20:42:53.173Z,10.15
2022-07-28T20:45:22.976Z,10.13
2022-07-28T20:47:52.140Z,9.43
2022-07-28T20:50:22.589Z,10.13
2022-07-28T20:52:51.956Z,9.45
2022-07-28T20:55:22.158Z,9.82
2022-07-28T20:57:54.163Z,10.50
2022-07-28T21:00:27.092Z,9.98
2022-07-28T21:02:56.641Z,9.97
2022-07-28T21:05:34.682Z,9.43
2022-07-28T21:08:09.324Z,9.18
2022-07-28T21:10:45.673Z,10.95
2022-07-28T21:13:16.211Z,9.15
2022-07-28T21:15:45.620Z,9.50
2022-07-28T21:18:15.205Z,9.60
2022-07-28T21:20:44.619Z,8.75
2022-07-28T21:23:13.953Z,9.40
2022-07-28T21:25:45.174Z,8.80
2022-07-28T21:28:33.860Z,10.17
2022-07-28T21:31:03.437Z,8.68
2022-07-28T21:33:32.838Z,8.23
2022-07-28T21:36:02.203Z,7.70
2022-07-28T21:38:31.542Z,8.55
2022-07-28T21:41:00.916Z,8.27
2022-07-28T21:43:30.346Z,8.27
2022-07-28T21:45:59.737Z,9.00
2022-07-28T21:48:29.190Z,7.90
2022-07-28T21:50:59.066Z,8.27
2022-07-28T21:53:28.420Z,8.47
2022-07-28T21:55:58.424Z,6.47
2022-07-28T21:58:27.754Z,7.97
2022-07-28T22:01:02.261Z,6.93
2022-07-28T22:03:32.151Z,8.30
2022-07-28T22:06:01.681Z,6.07
2022-07-28T22:08:31.100Z,6.63
2022-07-28T22:11:00.921Z,6.47
2022-07-28T22:13:30.645Z,7.40
2022-07-28T22:15:59.936Z,6.78
2022-07-28T22:18:29.445Z,6.03
2022-07-28T22:20:58.910Z,5.82
2022-07-28T22:23:29.670Z,6.38
2022-07-28T22:25:59.645Z,6.03
2022-07-28T22:28:29.454Z,6.97
2022-07-28T22:31:08.609Z,6.23
2022-07-28T22:33:42.339Z,6.13
2022-07-28T22:36:11.627Z,5.85
2022-07-28T22:38:41.080Z,6.05
2022-07-28T22:41:10.962Z,6.40
2022-07-28T22:43:40.464Z,8.77
2022-07-28T22:46:11.893Z,6.10
2022-07-28T22:48:41.282Z,4.57
2022-07-28T22:51:14.882Z,8.48
2022-07-28T22:53:45.706Z,7.28
